Time;durP1;ratioP1;P1;durP2;ratioP2;P2;SDS_P1;SDS_P2;PMS_P1;PMS_P2;Temp;Humidity;BMP_temperature;BMP_pressure;BME280_temperature;BME280_humidity;BME280_pressure;Samples;Min_cycle;Max_cycle;Signal;HPM_P1;HPM_P2
2022/07/21 00:01:29;288905.00;0.96;498.85;0.00;0.00;0.62;;;;;24.90;2.60;;;;;;2264364;61;1912;-86
2022/07/21 00:03:56;296786.00;0.99;512.40;846.00;0.00;2.09;;;;;25.00;1.00;;;;;;2264350;61;1378;-87
2022/07/21 00:06:24;416754.00;1.39;718.61;55080.00;0.18;95.97;;;;;25.10;1.50;;;;;;2264379;61;1631;-88
2022/07/21 00:08:52;233521.00;0.78;403.61;0.00;0.00;0.62;;;;;25.10;1.00;;;;;;2264403;61;985;-87
2022/07/21 00:11:21;36984.00;0.12;64.67;0.00;0.00;0.62;;;;;25.20;2.30;;;;;;2264267;61;1565;-87
2022/07/21 00:13:50;240135.00;0.80;414.98;0.00;0.00;0.62;;;;;25.20;2.20;;;;;;2264304;61;1593;-87
2022/07/21 00:16:18;54210.00;0.18;94.47;0.00;0.00;0.62;;;;;25.20;3.00;;;;;;2264310;61;1705;-87
2022/07/21 00:18:45;246214.00;0.82;425.44;0.00;0.00;0.62;;;;;25.00;3.30;;;;;;2264334;61;1437;-88
2022/07/21 00:21:15;249428.00;0.83;430.97;0.00;0.00;0.62;;;;;24.70;4.00;;;;;;2264275;61;1907;-86
2022/07/21 00:23:42;226685.00;0.76;391.85;0.00;0.00;0.62;;;;;24.60;5.00;;;;;;2264324;61;1150;-88
2022/07/21 00:26:11;263220.00;0.88;454.69;40773.00;0.14;71.23;;;;;24.70;5.70;;;;;;2264271;61;1553;-88
2022/07/21 00:28:40;134217.00;0.45;232.60;0.00;0.00;0.62;;;;;24.70;5.10;;;;;;2264263;61;1531;-85
2022/07/21 00:31:10;379608.00;1.27;654.75;40414.00;0.13;70.60;;;;;24.90;3.40;;;;;;2264277;61;1382;-86
2022/07/21 00:33:37;366849.00;1.22;632.82;19202.00;0.06;33.89;;;;;25.10;2.10;;;;;;2264293;61;1147;-87
2022/07/21 00:36:07;335939.00;1.12;579.69;48434.00;0.16;84.48;;;;;25.30;1.60;;;;;;2264293;61;2410;-87
2022/07/21 00:38:34;207690.00;0.69;359.16;0.00;0.00;0.62;;;;;25.40;2.70;;;;;;2264312;61;1483;-88
2022/07/21 00:41:05;410394.00;1.37;707.67;0.00;0.00;0.62;;;;;25.30;3.80;;;;;;2264193;61;1918;-86
2022/07/21 00:43:35;145907.00;0.49;252.75;0.00;0.00;0.62;;;;;25.40;2.70;;;;;;2264060;61;1064;-86
2022/07/21 00:46:04;197512.00;0.66;341.64;0.00;0.00;0.62;;;;;25.40;1.00;;;;;;2264272;61;1518;-87
2022/07/21 00:48:35;407481.00;1.36;702.67;42103.00;0.14;73.53;;;;;25.60;1.80;;;;;;2264253;61;1527;-87
2022/07/21 00:51:05;138957.00;0.46;240.77;0.00;0.00;0.62;;;;;25.50;1.00;;;;;;2263978;61;1447;-87
2022/07/21 00:53:34;280095.00;0.93;483.70;0.00;0.00;0.62;;;;;25.70;1.00;;;;;;2264227;61;1608;-87
2022/07/21 00:56:02;498535.00;1.66;859.30;64087.00;0.21;111.54;;;;;25.80;1.00;;;;;;2264274;61;1566;-87
2022/07/21 00:58:32;451433.00;1.50;778.25;75586.00;0.25;131.41;;;;;25.70;1.00;;;;;;2264201;61;1657;-89
2022/07/21 01:01:02;596888.00;1.99;1028.85;127965.00;0.43;221.82;;;;;25.80;1.00;;;;;;2264200;61;1910;-88
2022/07/21 01:03:33;443201.00;1.48;764.09;78857.00;0.26;137.06;;;;;25.80;1.00;;;;;;2264254;61;1428;-86
2022/07/21 01:06:02;347104.00;1.16;598.88;80530.00;0.27;139.95;;;;;25.70;1.00;;;;;;2264314;61;1036;-87
2022/07/21 01:08:29;455249.00;1.52;784.81;65186.00;0.22;113.44;;;;;25.70;1.30;;;;;;2264194;61;1028;-87
2022/07/21 01:10:59;734138.00;2.45;1266.49;61368.00;0.20;106.84;;;;;25.80;1.00;;;;;;2264193;61;1506;-86
2022/07/21 01:13:29;459953.00;1.53;792.90;130932.00;0.44;226.94;;;;;25.60;1.50;;;;;;2264173;61;1674;-88
2022/07/21 01:15:58;277264.00;0.92;478.83;71168.00;0.24;123.78;;;;;25.40;2.00;;;;;;2264213;61;1595;-87
2022/07/21 01:18:26;396707.00;1.32;684.14;71821.00;0.24;124.91;;;;;25.20;3.30;;;;;;2264231;61;979;-87
2022/07/21 01:20:56;404755.00;1.35;697.98;88511.00;0.30;153.74;;;;;25.00;2.40;;;;;;2264193;61;1920;-88
2022/07/21 01:23:27;487501.00;1.63;840.31;83389.00;0.28;144.89;;;;;24.90;4.30;;;;;;2264176;61;1341;-87
2022/07/21 01:25:58;485427.00;1.62;836.74;96297.00;0.32;167.18;;;;;24.70;4.60;;;;;;2264119;61;1603;-88
2022/07/21 01:28:28;1194427.00;3.98;2080.15;111877.00;0.37;194.07;;;;;24.90;3.90;;;;;;2264165;61;2210;-86
2022/07/21 01:30:56;762994.00;2.54;1316.66;58344.00;0.19;101.61;;;;;25.10;1.60;;;;;;2264117;61;2214;-86
2022/07/21 01:33:25;723298.00;2.41;1247.66;112219.00;0.37;194.66;;;;;24.80;2.50;;;;;;2264101;61;1449;-88
2022/07/21 01:35:53;768599.00;2.56;1326.41;88865.00;0.30;154.35;;;;;24.50;4.60;;;;;;2264119;61;1617;-88
2022/07/21 01:43:52;602219.00;2.01;1038.05;35399.00;0.12;61.93;;;;;24.40;4.60;;;;;;2264132;61;1085;-87
2022/07/21 01:46:19;751648.00;2.51;1296.92;7855.00;0.03;14.23;;;;;24.40;4.40;;;;;;2264060;61;1621;-86
2022/07/21 01:48:46;441465.00;1.47;761.10;29494.00;0.10;51.71;;;;;23.90;7.00;;;;;;2264111;61;1028;-87
2022/07/21 01:51:14;713942.00;2.38;1231.42;71015.00;0.24;123.51;;;;;23.50;8.80;;;;;;2264000;61;1593;-87
2022/07/21 01:53:42;1065318.00;3.55;1848.51;245862.00;0.82;424.83;;;;;23.80;8.80;;;;;;2264181;61;914;-86
2022/07/21 01:56:13;1319040.00;4.40;2306.99;177388.00;0.59;306.99;;;;;24.10;6.40;;;;;;2264723;61;1538;-87
2022/07/21 01:58:42;675216.00;2.25;1164.29;49010.00;0.16;85.47;;;;;24.40;4.70;;;;;;2264704;61;1637;-87
2022/07/21 02:01:10;759494.00;2.53;1310.57;26905.00;0.09;47.23;;;;;24.30;4.90;;;;;;2264590;61;2012;-88
2022/07/21 02:03:36;814691.00;2.72;1406.76;97050.00;0.32;168.48;;;;;24.20;5.30;;;;;;2264701;61;1527;-88
2022/07/21 02:06:05;450783.00;1.50;777.13;15633.00;0.05;27.71;;;;;24.00;6.70;;;;;;2264853;61;1071;-89
2022/07/21 02:08:32;365683.00;1.22;630.82;9485.00;0.03;17.06;;;;;23.90;6.80;;;;;;2264803;61;928;-89
2022/07/21 02:10:59;598277.00;1.99;1031.24;97971.00;0.33;170.07;;;;;24.10;5.90;;;;;;2269058;40;3804;-88
2022/07/21 02:13:28;856869.00;2.86;1480.49;33640.00;0.11;58.88;;;;;24.20;5.60;;;;;;2264682;61;1526;-88
2022/07/21 02:15:55;364241.00;1.21;628.34;15945.00;0.05;28.25;;;;;24.30;4.40;;;;;;2264875;61;1016;-88
2022/07/21 02:18:22;460586.00;1.54;793.99;0.00;0.00;0.62;;;;;24.50;4.40;;;;;;2264720;61;1115;-87
2022/07/21 02:20:50;393414.00;1.31;678.48;10523.00;0.04;18.86;;;;;24.50;2.70;;;;;;2267270;40;3617;-86
2022/07/21 02:23:17;401309.00;1.34;692.06;45581.00;0.15;79.54;;;;;24.60;3.80;;;;;;2264686;61;2034;-88
2022/07/21 02:25:45;193872.00;0.65;335.37;0.00;0.00;0.62;;;;;24.20;4.90;;;;;;2264737;61;2192;-87
2022/07/21 02:28:12;128928.00;0.43;223.48;0.00;0.00;0.62;;;;;23.90;6.30;;;;;;2264657;61;1431;-89
2022/07/21 02:30:41;366304.00;1.22;631.88;0.00;0.00;0.62;;;;;23.90;5.00;;;;;;2264763;61;1153;-89
2022/07/21 02:33:08;211433.00;0.70;365.60;0.00;0.00;0.62;;;;;24.10;4.60;;;;;;2264755;61;1407;-88
2022/07/21 02:35:35;536756.00;1.79;925.13;57517.00;0.19;100.18;;;;;24.20;5.70;;;;;;2264768;61;992;-89
2022/07/21 02:38:02;537182.00;1.79;925.87;14264.00;0.05;25.34;;;;;24.40;4.30;;;;;;2264788;61;1119;-88
2022/07/21 02:40:29;522884.00;1.74;901.23;22832.00;0.08;40.17;;;;;24.40;3.60;;;;;;2264680;61;1633;-86
2022/07/21 02:42:56;498477.00;1.66;859.20;3335.00;0.01;6.40;;;;;24.50;4.40;;;;;;2264593;61;1936;-89
2022/07/21 02:45:23;168581.00;0.56;291.82;0.00;0.00;0.62;;;;;24.30;3.30;;;;;;2264646;61;1122;-87
2022/07/21 02:47:53;433206.00;1.44;746.90;0.00;0.00;0.62;;;;;24.30;4.10;;;;;;2264856;61;990;-88
2022/07/21 02:50:22;368002.00;1.23;634.80;34100.00;0.11;59.68;;;;;24.10;4.50;;;;;;2264755;61;940;-85
2022/07/21 02:52:49;319189.00;1.06;550.90;0.00;0.00;0.62;;;;;24.20;5.50;;;;;;2264657;61;1369;-87
2022/07/21 02:55:16;331850.00;1.11;572.67;0.00;0.00;0.62;;;;;24.50;4.50;;;;;;2264765;61;985;-86
2022/07/21 02:57:43;521963.00;1.74;899.65;0.00;0.00;0.62;;;;;24.50;1.00;;;;;;2264669;61;1079;-88
2022/07/21 03:00:11;254253.00;0.85;439.27;0.00;0.00;0.62;;;;;24.70;3.40;;;;;;2264675;61;1011;-88
2022/07/21 03:02:38;760349.00;2.53;1312.06;69948.00;0.23;121.67;;;;;24.70;1.50;;;;;;2264616;61;2007;-88
2022/07/21 03:05:07;735644.00;2.45;1269.11;69945.00;0.23;121.67;;;;;24.70;2.90;;;;;;2264624;61;1057;-86
2022/07/21 03:07:34;603942.00;2.01;1041.03;69627.00;0.23;121.12;;;;;24.70;1.00;;;;;;2264562;61;1446;-87
2022/07/21 03:10:01;612079.00;2.04;1055.08;68474.00;0.23;119.12;;;;;24.80;2.40;;;;;;2264636;61;1599;-88
2022/07/21 03:12:28;1007877.00;3.36;1746.43;109106.00;0.36;189.29;;;;;24.60;3.40;;;;;;2264609;61;1391;-88
2022/07/21 03:14:55;417814.00;1.39;720.43;72239.00;0.24;125.63;;;;;24.70;3.90;;;;;;2264543;61;2293;-89
2022/07/21 03:17:23;400977.00;1.34;691.48;70462.00;0.23;122.56;;;;;24.70;4.90;;;;;;2264638;61;1111;-87
2022/07/21 03:19:50;646437.00;2.15;1114.47;92997.00;0.31;161.48;;;;;24.50;5.30;;;;;;2264570;61;1026;-87
2022/07/21 03:22:18;477062.00;1.59;822.34;109256.00;0.36;189.55;;;;;24.70;3.90;;;;;;2264544;61;1915;-88
2022/07/21 03:24:45;166367.00;0.55;288.01;65965.00;0.22;114.79;;;;;24.70;3.60;;;;;;2264555;61;1126;-88
2022/07/21 03:27:12;847399.00;2.82;1463.92;177442.00;0.59;307.08;;;;;24.70;1.80;;;;;;2264679;61;1011;-88
2022/07/21 03:29:39;211738.00;0.71;366.13;65215.00;0.22;113.49;;;;;24.80;1.40;;;;;;2264702;61;1024;-89
2022/07/21 03:32:06;304959.00;1.02;526.44;76701.00;0.26;133.34;;;;;24.80;1.70;;;;;;2264542;61;1383;-89
2022/07/21 03:34:33;187098.00;0.62;323.71;58705.00;0.20;102.24;;;;;24.80;1.70;;;;;;2264601;61;1529;-88
2022/07/21 03:37:00;320793.00;1.07;553.66;66942.00;0.22;116.48;;;;;24.80;2.60;;;;;;2264606;61;2055;-87
2022/07/21 03:39:28;479351.00;1.60;826.28;164297.00;0.55;284.44;;;;;24.90;2.60;;;;;;2264584;61;978;-87
2022/07/21 03:41:55;328650.00;1.10;567.17;78680.00;0.26;136.76;;;;;24.90;2.40;;;;;;2264497;61;1922;-89
2022/07/21 03:44:22;414155.00;1.38;714.14;107664.00;0.36;186.80;;;;;24.90;1.50;;;;;;2264587;61;1127;-87
2022/07/21 03:46:49;179689.00;0.60;310.95;59821.00;0.20;104.17;;;;;24.90;1.00;;;;;;2264600;61;971;-87
2022/07/21 03:49:16;187897.00;0.63;325.09;70183.00;0.23;122.08;;;;;24.90;3.00;;;;;;2264502;61;1557;-87
2022/07/21 03:51:43;211624.00;0.71;365.93;69015.00;0.23;120.06;;;;;24.90;3.00;;;;;;2264539;61;1385;-87
2022/07/21 03:54:10;189661.00;0.63;328.12;61754.00;0.21;107.51;;;;;24.80;3.20;;;;;;2264490;61;1132;-88
2022/07/21 03:56:38;69204.00;0.23;120.38;0.00;0.00;0.62;;;;;24.80;3.70;;;;;;2264508;61;1104;-87
2022/07/21 03:59:05;49361.00;0.16;86.08;0.00;0.00;0.62;;;;;24.70;4.30;;;;;;2264514;61;1424;-87
2022/07/21 04:01:33;86726.00;0.29;150.65;0.00;0.00;0.62;;;;;24.70;4.70;;;;;;2264472;61;1408;-88
2022/07/21 04:04:00;233353.00;0.78;403.32;29774.00;0.10;52.19;;;;;24.60;4.90;;;;;;2264401;61;1928;-88
2022/07/21 04:06:27;246754.00;0.82;426.37;57423.00;0.19;100.02;;;;;24.60;5.20;;;;;;2264485;61;1008;-88
2022/07/21 04:08:54;87039.00;0.29;151.19;0.00;0.00;0.62;;;;;24.80;3.00;;;;;;2264430;61;1704;-88
2022/07/21 04:11:21;145047.00;0.48;251.27;0.00;0.00;0.62;;;;;24.80;1.00;;;;;;2264366;61;1609;-87
2022/07/21 04:13:51;119308.00;0.40;206.89;0.00;0.00;0.62;;;;;24.90;2.20;;;;;;2264438;61;1134;-89
2022/07/21 04:16:21;220422.00;0.73;381.07;75031.00;0.25;130.45;;;;;25.00;2.90;;;;;;2264457;61;1217;-87
2022/07/21 04:18:48;538176.00;1.79;927.58;56834.00;0.19;99.00;;;;;25.00;3.40;;;;;;2264343;61;1608;-88
2022/07/21 04:21:17;254323.00;0.85;439.39;61722.00;0.21;107.45;;;;;24.90;3.20;;;;;;2264368;61;1252;-87
2022/07/21 04:23:44;206038.00;0.69;356.32;0.00;0.00;0.62;;;;;24.90;3.80;;;;;;2264378;61;2182;-88
2022/07/21 04:26:10;272291.00;0.91;470.28;0.00;0.00;0.62;;;;;24.80;4.10;;;;;;2264481;61;1011;-88
2022/07/21 04:28:37;38800.00;0.13;67.81;0.00;0.00;0.62;;;;;24.70;4.20;;;;;;2264395;61;1573;-86
2022/07/21 04:31:06;27586.00;0.09;48.40;0.00;0.00;0.62;;;;;24.80;3.90;;;;;;2264410;61;1075;-87
2022/07/21 04:33:33;0.00;0.00;0.62;0.00;0.00;0.62;;;;;24.80;3.90;;;;;;2264399;61;1135;-89
2022/07/21 04:36:00;0.00;0.00;0.62;0.00;0.00;0.62;;;;;24.80;3.90;;;;;;2264455;61;981;-86
2022/07/21 04:38:27;14011.00;0.05;24.90;0.00;0.00;0.62;;;;;24.80;3.50;;;;;;2264355;61;1704;-88
2022/07/21 04:40:54;239146.00;0.80;413.28;55316.00;0.18;96.38;;;;;24.80;3.90;;;;;;2264370;61;1066;-89
2022/07/21 04:43:21;205338.00;0.68;355.11;0.00;0.00;0.62;;;;;24.80;3.80;;;;;;2264236;61;1915;-87
2022/07/21 04:45:48;208570.00;0.70;360.67;0.00;0.00;0.62;;;;;24.80;6.00;;;;;;2264395;61;1542;-87
2022/07/21 04:48:17;74104.00;0.25;128.85;0.00;0.00;0.62;;;;;24.90;4.60;;;;;;2264391;61;1021;-88
2022/07/21 04:50:44;116054.00;0.39;201.28;0.00;0.00;0.62;;;;;24.90;3.90;;;;;;2264370;61;1138;-86
2022/07/21 04:53:11;153923.00;0.51;266.57;0.00;0.00;0.62;;;;;24.80;3.90;;;;;;2264383;61;1382;-87
2022/07/21 04:55:38;90400.00;0.30;157.00;0.00;0.00;0.62;;;;;24.90;4.70;;;;;;2272400;40;3761;-86
2022/07/21 04:58:05;501513.00;1.67;864.43;0.00;0.00;0.62;;;;;25.30;2.90;;;;;;2271758;40;3612;-86
2022/07/21 05:00:32;716556.00;2.39;1235.96;15137.00;0.05;26.85;;;;;25.50;1.70;;;;;;2264115;61;1686;-86
2022/07/21 05:02:59;248882.00;0.83;430.03;0.00;0.00;0.62;;;;;25.60;1.00;;;;;;2264296;61;2001;-86
2022/07/21 05:07:57;620674.00;2.07;1069.93;0.00;0.00;0.62;;;;;25.70;1.00;;;;;;2254374;61;1220;-89
2022/07/21 05:10:24;128674.00;0.43;223.04;0.00;0.00;0.62;;;;;25.50;2.20;;;;;;2252330;61;1567;-87
2022/07/21 05:12:51;139010.00;0.46;240.86;0.00;0.00;0.62;;;;;25.60;1.00;;;;;;2252311;61;1289;-88
2022/07/21 05:15:18;101031.00;0.34;175.35;0.00;0.00;0.62;;;;;25.60;1.10;;;;;;2252234;61;1609;-87
2022/07/21 05:17:45;194509.00;0.65;336.47;0.00;0.00;0.62;;;;;25.40;2.20;;;;;;2252201;61;1027;-87
2022/07/21 05:20:13;118578.00;0.40;205.63;0.00;0.00;0.62;;;;;25.60;2.70;;;;;;2252350;61;1125;-88
2022/07/21 05:22:40;167651.00;0.56;290.22;38961.00;0.13;68.09;;;;;25.60;1.70;;;;;;2252311;61;1911;-87
2022/07/21 05:25:09;97646.00;0.33;169.51;0.00;0.00;0.62;;;;;25.70;2.80;;;;;;2252361;61;984;-87
2022/07/21 05:27:36;0.00;0.00;0.62;0.00;0.00;0.62;;;;;25.90;1.70;;;;;;2252314;61;929;-87
2022/07/21 05:30:03;120156.00;0.40;208.35;3796.00;0.01;7.20;;;;;25.80;2.40;;;;;;2252855;61;997;-86
2022/07/21 05:32:30;0.00;0.00;0.62;0.00;0.00;0.62;;;;;26.00;1.00;;;;;;2252932;61;1295;-87
2022/07/21 05:34:57;102665.00;0.34;178.17;0.00;0.00;0.62;;;;;26.20;1.00;;;;;;2252990;61;945;-87
2022/07/21 05:37:25;85297.00;0.28;148.19;0.00;0.00;0.62;;;;;26.30;1.00;;;;;;2253043;61;1011;-87
2022/07/21 05:39:52;26663.00;0.09;46.81;0.00;0.00;0.62;;;;;26.20;2.50;;;;;;2253040;61;1026;-87
2022/07/21 05:42:20;9391.00;0.03;16.89;0.00;0.00;0.62;;;;;26.50;1.80;;;;;;2252958;61;2003;-87
2022/07/21 05:44:47;122008.00;0.41;211.55;0.00;0.00;0.62;;;;;26.60;1.00;;;;;;2253000;61;1115;-87
2022/07/21 05:47:14;89597.00;0.30;155.61;0.00;0.00;0.62;;;;;26.70;1.00;;;;;;2252941;61;1143;-88
2022/07/21 05:49:41;88183.00;0.29;153.17;0.00;0.00;0.62;;;;;27.20;1.00;;;;;;2252902;61;2176;-87
2022/07/21 05:52:08;95906.00;0.32;166.50;0.00;0.00;0.62;;;;;28.30;1.00;;;;;;2252773;61;2044;-88
2022/07/21 05:54:35;76719.00;0.26;133.37;0.00;0.00;0.62;;;;;28.90;1.00;;;;;;2252931;61;1002;-88
2022/07/21 05:57:02;0.00;0.00;0.62;0.00;0.00;0.62;;;;;29.70;1.00;;;;;;2252846;61;1138;-89
2022/07/21 05:59:32;155718.00;0.52;269.66;0.00;0.00;0.62;;;;;30.70;1.00;;;;;;2252851;61;1067;-88
2022/07/21 06:01:59;1713.00;0.01;3.59;0.00;0.00;0.62;;;;;31.40;1.00;;;;;;2252716;61;1447;-88
2022/07/21 06:04:26;0.00;0.00;0.62;0.00;0.00;0.62;;;;;32.00;1.00;;;;;;2252808;61;1927;-88
2022/07/21 06:06:53;198073.00;0.66;342.61;31273.00;0.10;54.79;;;;;32.70;1.00;;;;;;2252765;61;1023;-88
2022/07/21 06:09:20;86249.00;0.29;149.83;0.00;0.00;0.62;;;;;33.10;1.00;;;;;;2252759;61;1467;-88
2022/07/21 06:11:47;21869.00;0.07;38.51;0.00;0.00;0.62;;;;;33.80;1.00;;;;;;2252705;61;1517;-86
2022/07/21 06:14:15;315592.00;1.05;544.72;184083.00;0.61;318.52;;;;;34.10;1.00;;;;;;2252790;61;1052;-87
2022/07/21 06:16:43;60924.00;0.20;106.07;0.00;0.00;0.62;;;;;34.70;1.00;;;;;;2252743;61;1123;-88
2022/07/21 06:19:10;196835.00;0.66;340.48;0.00;0.00;0.62;;;;;35.00;1.00;;;;;;2252695;61;1156;-88
2022/07/21 06:21:37;39106.00;0.13;68.34;0.00;0.00;0.62;;;;;35.10;1.00;;;;;;2252708;61;1372;-87
2022/07/21 06:24:04;123372.00;0.41;213.90;0.00;0.00;0.62;;;;;35.60;1.00;;;;;;2252660;61;1924;-86
2022/07/21 06:26:31;184641.00;0.62;319.48;21040.00;0.07;37.07;;;;;35.70;1.00;;;;;;2252676;61;2321;-88
2022/07/21 06:28:58;1223859.00;4.08;2133.42;109035.00;0.36;189.16;;;;;36.00;1.00;;;;;;2252710;61;1103;-90
2022/07/21 06:31:25;1255091.00;4.18;2190.15;122413.00;0.41;212.24;;;;;36.10;1.00;;;;;;2252647;61;1514;-88
2022/07/21 06:33:53;985536.00;3.29;1706.87;82550.00;0.28;143.44;;;;;36.10;1.00;;;;;;2252719;61;1094;-86
2022/07/21 06:36:20;1323438.00;4.41;2315.06;29420.00;0.10;51.58;;;;;35.70;1.00;;;;;;2252698;61;1122;-89
2022/07/21 06:38:47;1271759.00;4.24;2220.51;90427.00;0.30;157.05;;;;;35.60;1.00;;;;;;2252644;61;1466;-89
2022/07/21 06:41:15;950848.00;3.17;1645.61;134626.00;0.45;233.31;;;;;36.10;1.00;;;;;;2252275;61;1434;-86
2022/07/21 06:43:42;584402.00;1.95;1007.29;103852.00;0.35;180.22;;;;;36.00;1.00;;;;;;2252515;61;1920;-91
2022/07/21 06:46:09;483153.00;1.61;832.82;173149.00;0.58;299.69;;;;;36.10;1.00;;;;;;2252568;61;1310;-87
2022/07/21 06:48:36;349007.00;1.16;602.15;51899.00;0.17;90.47;;;;;36.10;1.00;;;;;;2252662;61;1552;-90
2022/07/21 06:51:05;216209.00;0.72;373.82;0.00;0.00;0.62;;;;;35.80;1.00;;;;;;2252089;61;1493;-89
2022/07/21 06:53:32;159199.00;0.53;275.66;0.00;0.00;0.62;;;;;35.80;1.00;;;;;;2252513;61;1188;-88
2022/07/21 06:58:34;513386.00;1.71;884.87;0.00;0.00;0.62;;;;;35.60;1.00;;;;;;2266677;61;1345;-91
2022/07/21 07:01:01;249860.00;0.83;431.71;0.00;0.00;0.62;;;;;36.10;1.00;;;;;;2264451;61;1625;-89
2022/07/21 07:03:28;282710.00;0.94;488.20;10082.00;0.03;18.09;;;;;36.30;1.00;;;;;;2264480;61;1922;-89
2022/07/21 07:05:55;217800.00;0.73;376.56;0.00;0.00;0.62;;;;;35.70;1.00;;;;;;2271714;40;3590;-90
2022/07/21 07:08:24;184930.00;0.62;319.98;47641.00;0.16;83.11;;;;;36.10;1.00;;;;;;2265302;61;1944;-89
2022/07/21 07:10:51;203292.00;0.68;351.59;0.00;0.00;0.62;;;;;36.60;1.00;;;;;;2272804;41;3640;-90
2022/07/21 07:13:18;813959.00;2.71;1405.48;0.00;0.00;0.62;;;;;36.90;1.00;;;;;;2266037;61;1407;-87
2022/07/21 07:15:45;89975.00;0.30;156.26;0.00;0.00;0.62;;;;;37.10;1.00;;;;;;2270413;56;3755;-89
2022/07/21 07:18:12;155250.00;0.52;268.85;0.00;0.00;0.62;;;;;37.40;1.00;;;;;;2264415;61;1017;-87
2022/07/21 07:20:40;194486.00;0.65;336.43;0.00;0.00;0.62;;;;;37.50;1.00;;;;;;2264348;61;992;-89
2022/07/21 07:25:41;1104075.00;3.68;1917.71;59614.00;0.20;103.81;;;;;36.90;1.00;;;;;;2271930;40;3517;-88
2022/07/21 07:28:12;68921.00;0.23;119.90;0.00;0.00;0.62;;;;;36.10;1.00;;;;;;2264320;61;1146;-89
2022/07/21 07:30:39;164533.00;0.55;284.85;0.00;0.00;0.62;;;;;35.40;1.00;;;;;;2264462;61;2129;-88
2022/07/21 07:33:06;330241.00;1.10;569.90;0.00;0.00;0.62;;;;;34.60;1.00;;;;;;2264412;61;1269;-86
2022/07/21 07:35:33;55487.00;0.18;96.67;0.00;0.00;0.62;;;;;34.10;1.00;;;;;;2264532;61;901;-85
2022/07/21 07:40:29;200718.00;0.67;347.16;0.00;0.00;0.62;;;;;33.30;1.00;;;;;;2262004;61;1485;-88
2022/07/21 07:42:58;144486.00;0.48;250.30;0.00;0.00;0.62;;;;;33.30;1.00;;;;;;2260362;61;2002;-88
2022/07/21 07:45:26;37136.00;0.12;64.93;0.00;0.00;0.62;;;;;34.50;1.00;;;;;;2260365;61;1507;-88
2022/07/21 07:47:53;39511.00;0.13;69.04;0.00;0.00;0.62;;;;;34.80;1.00;;;;;;2260429;61;1087;-88
2022/07/21 07:50:20;66690.00;0.22;116.04;0.00;0.00;0.62;;;;;35.20;1.00;;;;;;2260394;61;1448;-89
2022/07/21 07:52:47;69443.00;0.23;120.80;0.00;0.00;0.62;;;;;35.10;1.00;;;;;;2260291;61;1280;-88
2022/07/21 07:55:14;240617.00;0.80;415.81;0.00;0.00;0.62;;;;;34.70;1.00;;;;;;2260478;61;1068;-88
2022/07/21 07:57:43;128054.00;0.43;221.97;0.00;0.00;0.62;;;;;34.00;1.00;;;;;;2260369;61;1570;-88
2022/07/21 08:00:16;57010.00;0.19;99.31;0.00;0.00;0.62;;;;;34.20;1.00;;;;;;2260373;61;1157;-90
2022/07/21 08:02:43;354873.00;1.18;612.24;9945.00;0.03;17.85;;;;;33.90;1.00;;;;;;2260377;61;2175;-87
2022/07/21 08:05:11;0.00;0.00;0.62;0.00;0.00;0.62;;;;;33.10;1.00;;;;;;2260329;61;1939;-87
2022/07/21 08:07:38;38321.00;0.13;66.98;0.00;0.00;0.62;;;;;33.60;1.00;;;;;;2260430;61;1071;-86
2022/07/21 08:10:06;155519.00;0.52;269.32;0.00;0.00;0.62;;;;;34.30;1.00;;;;;;2260350;61;2224;-88
2022/07/21 08:12:33;106258.00;0.35;184.37;0.00;0.00;0.62;;;;;35.10;1.00;;;;;;2260314;61;2033;-88
2022/07/21 08:15:00;123489.00;0.41;214.10;0.00;0.00;0.62;;;;;36.10;1.00;;;;;;2260289;61;1535;-87
2022/07/21 08:17:29;15903.00;0.05;28.17;0.00;0.00;0.62;;;;;36.50;1.00;;;;;;2260372;61;1031;-87
2022/07/21 08:19:55;151356.00;0.50;262.14;0.00;0.00;0.62;;;;;36.30;1.00;;;;;;2260441;61;1033;-89
2022/07/21 08:22:22;63250.00;0.21;110.09;0.00;0.00;0.62;;;;;35.80;1.00;;;;;;2260402;61;1312;-88
2022/07/21 08:24:49;171280.00;0.57;296.47;0.00;0.00;0.62;;;;;36.80;1.00;;;;;;2260358;61;1989;-88
2022/07/21 08:27:17;225750.00;0.75;390.24;0.00;0.00;0.62;;;;;36.70;1.00;;;;;;2260352;61;1078;-87
2022/07/21 08:29:47;121392.00;0.40;210.48;0.00;0.00;0.62;;;;;37.10;1.00;;;;;;2260286;61;915;-87
2022/07/21 08:32:14;154526.00;0.52;267.61;0.00;0.00;0.62;;;;;37.30;1.00;;;;;;2260168;61;1309;-89
2022/07/21 08:34:43;161370.00;0.54;279.40;0.00;0.00;0.62;;;;;37.10;1.00;;;;;;2260254;61;1437;-86
2022/07/21 08:37:09;120997.00;0.40;209.80;0.00;0.00;0.62;;;;;35.60;1.00;;;;;;2260284;61;916;-85
2022/07/21 08:39:37;155644.00;0.52;269.53;0.00;0.00;0.62;;;;;34.40;1.00;;;;;;2260241;61;1032;-87
2022/07/21 08:42:06;334334.00;1.11;576.94;0.00;0.00;0.62;;;;;34.20;1.00;;;;;;2260206;61;1379;-86
2022/07/21 08:44:33;125574.00;0.42;217.70;0.00;0.00;0.62;;;;;34.00;1.00;;;;;;2260223;61;1991;-87
2022/07/21 08:47:01;51835.00;0.17;90.36;0.00;0.00;0.62;;;;;34.50;1.00;;;;;;2260283;61;1095;-88
2022/07/21 08:49:29;265639.00;0.89;458.85;0.00;0.00;0.62;;;;;35.20;1.00;;;;;;2260268;61;1009;-86
2022/07/21 08:51:57;1099931.00;3.67;1910.30;121124.00;0.40;210.02;;;;;35.20;1.00;;;;;;2260229;61;1590;-89
2022/07/21 08:54:24;1113484.00;3.71;1934.55;84500.00;0.28;146.81;;;;;35.00;1.00;;;;;;2260250;61;1014;-88
2022/07/21 08:56:51;1419377.00;4.73;2492.31;94339.00;0.31;163.80;;;;;34.40;1.00;;;;;;2260176;61;1253;-87
2022/07/21 08:59:18;1257416.00;4.19;2194.38;167460.00;0.56;289.89;;;;;33.90;1.00;;;;;;2260269;61;1082;-88
2022/07/21 09:01:45;204521.00;0.68;353.71;57005.00;0.19;99.30;;;;;33.80;1.00;;;;;;2260215;61;1289;-88
2022/07/21 09:04:24;24693.00;0.08;43.40;0.00;0.00;0.62;;;;;33.90;1.00;;;;;;2259977;61;2013;-88
2022/07/21 09:06:56;0.00;0.00;0.62;0.00;0.00;0.62;;;;;33.30;1.00;;;;;;2260201;61;995;-89
2022/07/21 09:09:26;0.00;0.00;0.62;0.00;0.00;0.62;;;;;32.60;1.00;;;;;;2260354;61;1117;-89
2022/07/21 09:11:53;170468.00;0.57;295.07;0.00;0.00;0.62;;;;;32.40;1.00;;;;;;2260201;61;1401;-88
2022/07/21 09:14:23;81823.00;0.27;142.19;0.00;0.00;0.62;;;;;32.50;1.00;;;;;;2260188;61;1101;-87
2022/07/21 09:19:23;648832.00;2.16;1118.62;0.00;0.00;0.62;;;;;33.20;1.00;;;;;;2262297;61;1410;-86
2022/07/21 09:21:53;233648.00;0.78;403.82;0.00;0.00;0.62;;;;;33.30;1.00;;;;;;2260214;61;1541;-88
2022/07/21 09:24:29;374839.00;1.25;646.55;37277.00;0.12;65.18;;;;;32.60;1.00;;;;;;2260027;61;1915;-87
2022/07/21 09:27:09;0.00;0.00;0.62;0.00;0.00;0.62;;;;;32.50;1.00;;;;;;2260061;61;1451;-89
2022/07/21 09:32:15;1923050.00;6.41;3467.50;114070.00;0.38;197.85;;;;;31.90;1.00;;;;;;2261513;61;1282;-90
2022/07/21 09:34:42;1212494.00;4.04;2112.83;72964.00;0.24;126.88;;;;;32.30;1.00;;;;;;2260105;61;1103;-90
2022/07/21 09:39:49;708044.00;2.36;1221.19;73572.00;0.25;127.93;;;;;32.60;1.00;;;;;;2257823;61;1319;-88
2022/07/21 09:42:22;373593.00;1.25;644.41;54408.00;0.18;94.81;;;;;32.70;1.00;;;;;;2255946;61;1448;-88
2022/07/21 09:44:51;276358.00;0.92;477.28;0.00;0.00;0.62;;;;;32.30;1.00;;;;;;2256086;61;1904;-87
2022/07/21 09:47:21;475747.00;1.59;820.08;0.00;0.00;0.62;;;;;32.60;1.00;;;;;;2256067;61;1582;-88
2022/07/21 09:49:50;1288649.00;4.30;2251.35;78449.00;0.26;136.36;;;;;32.80;1.00;;;;;;2255924;61;1751;-89
2022/07/21 09:52:26;374549.00;1.25;646.06;64826.00;0.22;112.82;;;;;32.90;1.00;;;;;;2256059;61;1368;-90
2022/07/21 09:54:57;261368.00;0.87;451.50;61770.00;0.21;107.54;;;;;32.90;1.00;;;;;;2256105;61;1837;-88
2022/07/21 10:02:25;1050935.00;3.50;1822.90;106832.00;0.36;185.36;;;;;32.50;1.00;;;;;;2264587;54;1323;-90
2022/07/21 10:09:56;1752039.00;5.84;3126.99;140428.00;0.47;243.31;;;;;32.80;1.00;;;;;;2282359;56;3675;-89
2022/07/21 10:15:05;472146.00;1.57;813.88;56440.00;0.19;98.32;;;;;32.50;1.00;;;;;;2261583;56;3656;-89
2022/07/21 10:17:32;500094.00;1.67;861.99;80891.00;0.27;140.58;;;;;32.50;1.00;;;;;;2264388;61;1110;-89
2022/07/21 10:20:06;1877982.00;6.26;3376.72;272126.00;0.91;470.00;;;;;32.80;1.00;;;;;;2264332;61;2307;-88
2022/07/21 10:22:51;1355122.00;4.52;2373.35;79057.00;0.26;137.41;;;;;32.40;1.00;;;;;;2279854;40;3813;-89
2022/07/21 10:25:21;6745.00;0.02;12.31;0.00;0.00;0.62;;;;;32.10;1.00;;;;;;2264715;61;2010;-88